Time;durP1;ratioP1;P1;durP2;ratioP2;P2;SDS_P1;SDS_P2;PMS_P1;PMS_P2;Temp;Humidity;BMP_temperature;BMP_pressure;BME280_temperature;BME280_humidity;BME280_pressure;Samples;Min_cycle;Max_cycle;Signal;HPM_P1;HPM_P2
2020/12/12 00:00:10;;;;;;;41.00;21.87;;;;;;;;;;5014297;28;20201;-72
2020/12/12 00:02:35;;;;;;;43.10;22.50;;;;;;;;;;5039907;28;20528;-72
2020/12/12 00:05:01;;;;;;;41.07;21.83;;;;;;;;;;5023799;28;20637;-72
2020/12/12 00:07:26;;;;;;;42.33;22.07;;;;;;;;;;5014566;28;20217;-74
2020/12/12 00:09:52;;;;;;;40.50;21.43;;;;;;;;;;5023520;28;20190;-72
2020/12/12 00:12:17;;;;;;;42.00;22.10;;;;;;;;;;5015855;28;20221;-72
2020/12/12 00:14:42;;;;;;;41.13;22.67;;;;;;;;;;5024136;28;20269;-72
2020/12/12 00:17:08;;;;;;;38.03;21.27;;;;;;;;;;5016724;28;20564;-72
2020/12/12 00:19:33;;;;;;;40.57;21.83;;;;;;;;;;5025170;28;20213;-72
2020/12/12 00:21:58;;;;;;;41.20;22.27;;;;;;;;;;5014613;28;20273;-73
2020/12/12 00:24:24;;;;;;;42.50;23.93;;;;;;;;;;5027576;28;20213;-73
2020/12/12 00:26:49;;;;;;;42.27;22.67;;;;;;;;;;5014760;28;20628;-73
2020/12/12 00:29:15;;;;;;;40.97;22.90;;;;;;;;;;5024001;28;20256;-73
2020/12/12 00:31:41;;;;;;;41.40;21.20;;;;;;;;;;5018609;28;20182;-73
2020/12/12 00:34:07;;;;;;;40.67;22.63;;;;;;;;;;5023345;28;20558;-73
2020/12/12 00:36:42;;;;;;;42.90;22.20;;;;;;;;;;5024068;28;20600;-73
2020/12/12 00:39:08;;;;;;;40.53;22.37;;;;;;;;;;5019323;28;20189;-73
2020/12/12 00:41:36;;;;;;;37.60;21.60;;;;;;;;;;5023799;28;20280;-73
2020/12/12 00:44:03;;;;;;;41.87;23.33;;;;;;;;;;5015667;28;20195;-73
2020/12/12 00:46:29;;;;;;;38.67;22.17;;;;;;;;;;5026728;28;20239;-73
2020/12/12 00:48:54;;;;;;;43.43;22.80;;;;;;;;;;5017418;28;20181;-73
2020/12/12 00:51:19;;;;;;;39.90;22.53;;;;;;;;;;5027255;28;20641;-73
2020/12/12 00:53:45;;;;;;;38.90;21.90;;;;;;;;;;5017920;28;20186;-73
2020/12/12 00:56:10;;;;;;;41.70;22.50;;;;;;;;;;5024925;28;20233;-73
2020/12/12 00:58:35;;;;;;;40.93;22.67;;;;;;;;;;5019408;28;20182;-73
2020/12/12 01:01:00;;;;;;;44.40;22.93;;;;;;;;;;5024657;28;20285;-72
2020/12/12 01:03:26;;;;;;;42.60;21.87;;;;;;;;;;5018545;28;20198;-73
2020/12/12 01:05:51;;;;;;;41.33;21.73;;;;;;;;;;5025198;28;20700;-72
2020/12/12 01:08:16;;;;;;;43.77;22.47;;;;;;;;;;5021038;28;20233;-72
2020/12/12 01:10:42;;;;;;;38.07;21.13;;;;;;;;;;5018490;28;20178;-73
2020/12/12 01:13:07;;;;;;;41.90;22.77;;;;;;;;;;5037843;28;20193;-73
2020/12/12 01:15:32;;;;;;;39.03;23.00;;;;;;;;;;5018125;28;20247;-73
2020/12/12 01:17:58;;;;;;;40.37;23.53;;;;;;;;;;5026572;28;20182;-73
2020/12/12 01:20:23;;;;;;;42.77;22.63;;;;;;;;;;5015905;28;20213;-72
2020/12/12 01:22:49;;;;;;;43.77;23.53;;;;;;;;;;5019647;28;20190;-72
2020/12/12 01:25:14;;;;;;;42.43;23.00;;;;;;;;;;5016867;28;20631;-72
2020/12/12 01:27:39;;;;;;;39.23;22.30;;;;;;;;;;5026651;28;20190;-72
2020/12/12 01:30:05;;;;;;;40.57;22.70;;;;;;;;;;5017455;28;20681;-72
2020/12/12 01:32:30;;;;;;;44.60;23.17;;;;;;;;;;5028296;28;20214;-72
2020/12/12 01:34:55;;;;;;;40.90;23.13;;;;;;;;;;5008425;28;20230;-73
2020/12/12 01:37:21;;;;;;;43.67;22.90;;;;;;;;;;5021483;28;20191;-73
2020/12/12 01:39:46;;;;;;;42.77;23.80;;;;;;;;;;5024616;28;20545;-73
2020/12/12 01:42:11;;;;;;;45.20;23.97;;;;;;;;;;5015996;28;20205;-73
2020/12/12 01:44:37;;;;;;;43.40;23.43;;;;;;;;;;5027046;28;20206;-73
2020/12/12 01:47:03;;;;;;;46.17;24.40;;;;;;;;;;5017392;28;20182;-73
2020/12/12 01:49:28;;;;;;;45.73;23.83;;;;;;;;;;5041070;28;20190;-73
2020/12/12 01:51:53;;;;;;;48.73;24.57;;;;;;;;;;5018691;28;20633;-73
2020/12/12 01:54:19;;;;;;;46.83;24.70;;;;;;;;;;5023714;28;20182;-72
2020/12/12 01:56:46;;;;;;;46.90;24.37;;;;;;;;;;5026349;28;20213;-72
2020/12/12 01:59:12;;;;;;;50.87;25.90;;;;;;;;;;5026291;28;20686;-72
2020/12/12 02:01:45;;;;;;;54.90;25.90;;;;;;;;;;5014044;28;20189;-73
2020/12/12 02:04:16;;;;;;;48.03;24.70;;;;;;;;;;5026436;28;20182;-73
2020/12/12 02:06:41;;;;;;;49.20;26.00;;;;;;;;;;5015940;28;20349;-73
2020/12/12 02:09:07;;;;;;;51.13;25.80;;;;;;;;;;5027032;28;20260;-73
2020/12/12 02:11:36;;;;;;;47.07;24.90;;;;;;;;;;5016937;28;20292;-72
2020/12/12 02:14:01;;;;;;;51.70;25.80;;;;;;;;;;5023684;28;20208;-73
2020/12/12 02:16:26;;;;;;;51.77;26.33;;;;;;;;;;5021222;28;20213;-72
2020/12/12 02:18:52;;;;;;;54.20;26.07;;;;;;;;;;5018187;28;20189;-72
2020/12/12 02:21:17;;;;;;;49.00;26.07;;;;;;;;;;5026785;28;20195;-72
2020/12/12 02:23:42;;;;;;;50.10;25.80;;;;;;;;;;5012209;28;20247;-72
2020/12/12 02:26:08;;;;;;;50.23;26.47;;;;;;;;;;5025272;28;20213;-72
2020/12/12 02:28:50;;;;;;;55.43;27.00;;;;;;;;;;5017962;28;20213;-72
2020/12/12 02:31:15;;;;;;;55.07;26.53;;;;;;;;;;5024031;28;20209;-72
2020/12/12 02:33:40;;;;;;;52.17;27.03;;;;;;;;;;5018678;28;20316;-72
2020/12/12 02:36:06;;;;;;;52.13;25.70;;;;;;;;;;5024689;28;20178;-72
2020/12/12 02:38:32;;;;;;;53.40;26.07;;;;;;;;;;5018670;28;20256;-73
2020/12/12 02:40:57;;;;;;;52.07;26.70;;;;;;;;;;5040005;28;20198;-73
2020/12/12 02:43:23;;;;;;;55.37;26.80;;;;;;;;;;5016880;28;20193;-73
2020/12/12 02:45:49;;;;;;;57.13;27.37;;;;;;;;;;5027622;28;20206;-73
2020/12/12 02:48:14;;;;;;;55.53;26.97;;;;;;;;;;5027323;28;20266;-73
2020/12/12 02:50:40;;;;;;;56.07;27.20;;;;;;;;;;5019864;28;20244;-73
2020/12/12 02:53:06;;;;;;;52.43;26.03;;;;;;;;;;5030481;28;20233;-73
2020/12/12 02:55:31;;;;;;;54.77;27.40;;;;;;;;;;5015046;28;20190;-73
2020/12/12 02:57:56;;;;;;;51.20;26.60;;;;;;;;;;5029612;28;20204;-73
2020/12/12 03:00:24;;;;;;;55.63;26.43;;;;;;;;;;5019789;28;20182;-73
2020/12/12 03:02:50;;;;;;;53.27;26.47;;;;;;;;;;5029299;28;20616;-73
2020/12/12 03:05:16;;;;;;;49.70;27.43;;;;;;;;;;5017420;28;20238;-73
2020/12/12 03:07:41;;;;;;;50.83;26.63;;;;;;;;;;5030974;28;20284;-72
2020/12/12 03:10:07;;;;;;;50.37;26.37;;;;;;;;;;5018204;28;20210;-72
2020/12/12 03:12:34;;;;;;;58.17;27.47;;;;;;;;;;5030825;28;20189;-72
2020/12/12 03:14:59;;;;;;;57.67;28.17;;;;;;;;;;5019967;28;20193;-73
2020/12/12 03:17:25;;;;;;;55.03;28.13;;;;;;;;;;5028971;28;20599;-73
2020/12/12 03:19:51;;;;;;;53.03;27.40;;;;;;;;;;5023196;28;20214;-73
2020/12/12 03:22:16;;;;;;;53.80;26.90;;;;;;;;;;5022476;28;20774;-72
2020/12/12 03:24:41;;;;;;;55.90;28.20;;;;;;;;;;5039191;28;20301;-72
2020/12/12 03:27:07;;;;;;;56.93;27.13;;;;;;;;;;5023132;28;20186;-73
2020/12/12 03:29:32;;;;;;;55.77;27.43;;;;;;;;;;5024657;28;20205;-73
2020/12/12 03:31:57;;;;;;;54.60;28.30;;;;;;;;;;5022778;28;20190;-73
2020/12/12 03:34:23;;;;;;;56.47;27.03;;;;;;;;;;5025197;28;20226;-73
2020/12/12 03:36:48;;;;;;;63.87;28.63;;;;;;;;;;5021434;28;20193;-72
2020/12/12 03:39:13;;;;;;;55.10;27.03;;;;;;;;;;5024011;28;20190;-72
2020/12/12 03:41:39;;;;;;;53.27;27.17;;;;;;;;;;5022585;28;20552;-72
2020/12/12 03:44:04;;;;;;;53.10;27.87;;;;;;;;;;5024609;28;20522;-72
2020/12/12 03:46:30;;;;;;;55.13;26.67;;;;;;;;;;5021468;28;20186;-73
2020/12/12 03:48:55;;;;;;;62.27;28.70;;;;;;;;;;5024942;28;20182;-73
2020/12/12 03:51:21;;;;;;;54.53;27.77;;;;;;;;;;5027383;28;20218;-73
2020/12/12 03:53:46;;;;;;;56.20;27.93;;;;;;;;;;5017247;28;20189;-73
2020/12/12 03:56:13;;;;;;;62.83;28.17;;;;;;;;;;5029297;28;20637;-72
2020/12/12 03:58:39;;;;;;;54.80;26.93;;;;;;;;;;5017114;28;20193;-73
2020/12/12 04:01:05;;;;;;;55.63;28.47;;;;;;;;;;5030570;28;20178;-73
2020/12/12 04:03:30;;;;;;;55.87;27.30;;;;;;;;;;5016001;28;20205;-73
2020/12/12 04:05:55;;;;;;;55.70;27.83;;;;;;;;;;5029765;28;20277;-73
2020/12/12 04:08:21;;;;;;;56.93;27.40;;;;;;;;;;5013869;28;20217;-73
2020/12/12 04:10:46;;;;;;;59.37;28.60;;;;;;;;;;5029276;28;20178;-73
2020/12/12 04:13:11;;;;;;;59.20;28.53;;;;;;;;;;5013387;28;20194;-72
2020/12/12 04:15:36;;;;;;;58.90;28.00;;;;;;;;;;5030486;28;20182;-72
2020/12/12 04:18:02;;;;;;;56.70;28.60;;;;;;;;;;5012295;28;20193;-72
2020/12/12 04:20:27;;;;;;;59.20;28.60;;;;;;;;;;5029358;28;20182;-73
2020/12/12 04:22:53;;;;;;;60.53;29.37;;;;;;;;;;5024051;28;20213;-73
2020/12/12 04:25:18;;;;;;;61.73;29.43;;;;;;;;;;5018793;28;20277;-73
2020/12/12 04:27:43;;;;;;;55.47;28.20;;;;;;;;;;5023381;28;20190;-73
2020/12/12 04:30:09;;;;;;;62.90;28.40;;;;;;;;;;5019808;28;20551;-73
2020/12/12 04:32:34;;;;;;;60.00;28.67;;;;;;;;;;5027056;28;20273;-73
2020/12/12 04:35:00;;;;;;;65.07;29.67;;;;;;;;;;5019586;28;20272;-73
2020/12/12 04:37:25;;;;;;;62.57;28.67;;;;;;;;;;5022239;28;20178;-73
2020/12/12 04:39:50;;;;;;;62.40;30.43;;;;;;;;;;5019937;28;20530;-73
2020/12/12 04:42:16;;;;;;;64.80;28.33;;;;;;;;;;5023900;28;20537;-73
2020/12/12 04:44:43;;;;;;;58.50;28.77;;;;;;;;;;5020919;28;20583;-73
2020/12/12 04:47:10;;;;;;;61.13;29.00;;;;;;;;;;5025421;28;20181;-73
2020/12/12 04:49:36;;;;;;;61.73;28.53;;;;;;;;;;5017232;28;20541;-73
2020/12/12 04:52:04;;;;;;;58.93;27.60;;;;;;;;;;5024871;28;20182;-73
2020/12/12 04:54:34;;;;;;;61.53;28.93;;;;;;;;;;5015702;28;20166;-73
2020/12/12 04:57:05;;;;;;;65.07;30.43;;;;;;;;;;5015926;28;20552;-73
2020/12/12 04:59:31;;;;;;;62.47;29.13;;;;;;;;;;5028160;28;20568;-73
2020/12/12 05:01:58;;;;;;;69.70;31.67;;;;;;;;;;5014542;28;20728;-73
2020/12/12 05:04:24;;;;;;;66.53;30.37;;;;;;;;;;5024620;28;20479;-73
2020/12/12 05:06:49;;;;;;;69.03;31.77;;;;;;;;;;5017553;28;20216;-73
2020/12/12 05:09:14;;;;;;;71.33;29.60;;;;;;;;;;5012952;28;20185;-73
2020/12/12 05:11:43;;;;;;;63.57;29.83;;;;;;;;;;5011684;28;20652;-73
2020/12/12 05:14:09;;;;;;;70.83;31.27;;;;;;;;;;5022400;28;20235;-73
2020/12/12 05:16:35;;;;;;;66.10;30.10;;;;;;;;;;5014715;28;20328;-73
2020/12/12 05:19:03;;;;;;;66.30;30.70;;;;;;;;;;5021164;28;20202;-73
2020/12/12 05:21:28;;;;;;;73.23;30.90;;;;;;;;;;5030987;28;20620;-73
2020/12/12 05:23:53;;;;;;;64.73;29.57;;;;;;;;;;5023637;28;20253;-73
2020/12/12 05:26:19;;;;;;;75.20;31.37;;;;;;;;;;5014359;28;20497;-73
2020/12/12 05:28:45;;;;;;;72.70;31.17;;;;;;;;;;5027658;28;20186;-72
2020/12/12 05:31:11;;;;;;;72.10;32.20;;;;;;;;;;5012758;28;20170;-72
2020/12/12 05:33:36;;;;;;;71.83;31.43;;;;;;;;;;5014406;28;20228;-72
2020/12/12 05:36:02;;;;;;;71.03;30.80;;;;;;;;;;5025988;28;20174;-72
2020/12/12 05:38:28;;;;;;;67.57;31.03;;;;;;;;;;5016617;28;20307;-72
2020/12/12 05:40:55;;;;;;;73.10;31.67;;;;;;;;;;5024145;28;20313;-72
2020/12/12 05:43:29;;;;;;;70.23;31.87;;;;;;;;;;5017062;28;20182;-72
2020/12/12 05:45:54;;;;;;;66.03;30.00;;;;;;;;;;5022252;28;20219;-72
2020/12/12 05:48:22;;;;;;;68.93;31.47;;;;;;;;;;5016376;28;20190;-73
2020/12/12 05:50:47;;;;;;;76.97;32.30;;;;;;;;;;5022549;28;20189;-73
2020/12/12 05:53:16;;;;;;;77.33;33.13;;;;;;;;;;5014536;28;20186;-72
2020/12/12 05:55:41;;;;;;;78.63;32.07;;;;;;;;;;5025840;28;20182;-72
2020/12/12 05:58:07;;;;;;;79.87;32.87;;;;;;;;;;5017418;28;20191;-72
2020/12/12 06:00:32;;;;;;;75.13;32.40;;;;;;;;;;5023645;28;20186;-72
2020/12/12 06:03:21;;;;;;;76.90;33.23;;;;;;;;;;5022027;28;20550;-72
2020/12/12 06:05:48;;;;;;;80.60;33.03;;;;;;;;;;5024774;28;20664;-73
2020/12/12 06:08:31;;;;;;;78.90;33.70;;;;;;;;;;5023050;28;20202;-73
2020/12/12 06:11:02;;;;;;;83.27;31.67;;;;;;;;;;5025108;28;20315;-73
2020/12/12 06:13:33;;;;;;;85.33;33.20;;;;;;;;;;4328314;28;10000847;-73
2020/12/12 06:16:02;;;;;;;79.33;33.00;;;;;;;;;;5016589;28;20182;-73
2020/12/12 06:18:56;;;;;;;85.23;35.57;;;;;;;;;;5022703;28;20187;-73
2020/12/12 06:21:23;;;;;;;87.63;33.23;;;;;;;;;;5016147;28;20197;-73
2020/12/12 06:23:49;;;;;;;101.57;37.17;;;;;;;;;;5021254;28;20213;-73
2020/12/12 06:26:16;;;;;;;88.90;34.47;;;;;;;;;;5015154;28;20580;-73
2020/12/12 06:28:43;;;;;;;92.17;35.37;;;;;;;;;;5022422;28;20187;-73
2020/12/12 06:31:12;;;;;;;89.93;35.17;;;;;;;;;;5015883;28;20614;-73
2020/12/12 06:33:50;;;;;;;90.97;35.50;;;;;;;;;;5023211;28;20234;-73
2020/12/12 06:36:30;;;;;;;86.97;33.90;;;;;;;;;;5016317;28;20196;-73
2020/12/12 06:39:14;;;;;;;97.87;35.07;;;;;;;;;;5018166;28;20276;-73
2020/12/12 06:41:39;;;;;;;86.07;34.23;;;;;;;;;;5013741;28;20230;-73
2020/12/12 06:44:05;;;;;;;82.43;34.37;;;;;;;;;;5022456;28;20201;-73
2020/12/12 06:46:53;;;;;;;90.13;33.73;;;;;;;;;;5015365;28;20193;-73
2020/12/12 06:49:21;;;;;;;89.03;34.87;;;;;;;;;;5022401;28;20186;-73
2020/12/12 06:51:50;;;;;;;85.03;33.53;;;;;;;;;;5012246;28;20190;-72
2020/12/12 06:54:16;;;;;;;86.20;34.90;;;;;;;;;;5023274;28;20179;-73
2020/12/12 06:56:41;;;;;;;96.50;35.20;;;;;;;;;;5016253;28;20751;-73
2020/12/12 06:59:29;;;;;;;88.77;34.73;;;;;;;;;;5022426;28;21060;-73
2020/12/12 07:02:00;;;;;;;93.63;33.97;;;;;;;;;;5009390;28;20193;-73
2020/12/12 07:04:27;;;;;;;88.03;34.20;;;;;;;;;;5023198;28;20198;-73
2020/12/12 07:06:58;;;;;;;86.40;34.73;;;;;;;;;;5011925;28;20217;-72
2020/12/12 07:09:26;;;;;;;80.23;33.33;;;;;;;;;;5023028;28;20189;-73
2020/12/12 07:11:51;;;;;;;86.77;34.27;;;;;;;;;;5010720;28;20598;-73
2020/12/12 07:14:17;;;;;;;84.93;33.80;;;;;;;;;;5023926;28;20195;-73
2020/12/12 07:16:43;;;;;;;87.03;34.53;;;;;;;;;;5019407;28;20190;-73
2020/12/12 07:19:10;;;;;;;81.20;33.03;;;;;;;;;;5016349;28;20645;-73
2020/12/12 07:21:38;;;;;;;88.07;34.70;;;;;;;;;;5021577;28;20193;-73
2020/12/12 07:24:03;;;;;;;85.63;34.93;;;;;;;;;;5013742;28;20739;-73
2020/12/12 07:26:29;;;;;;;91.37;34.30;;;;;;;;;;5020876;28;20310;-73
2020/12/12 07:28:54;;;;;;;86.77;34.03;;;;;;;;;;5017651;28;20188;-73
2020/12/12 07:31:20;;;;;;;84.37;34.00;;;;;;;;;;5019011;28;20202;-73
2020/12/12 07:33:46;;;;;;;93.60;35.03;;;;;;;;;;5014779;28;20268;-73
2020/12/12 07:36:12;;;;;;;90.83;34.53;;;;;;;;;;5020451;28;20186;-73
2020/12/12 07:38:41;;;;;;;86.23;33.97;;;;;;;;;;5014552;28;20705;-73
2020/12/12 07:41:11;;;;;;;80.60;34.27;;;;;;;;;;5034382;28;20185;-73
2020/12/12 07:43:51;;;;;;;84.40;34.43;;;;;;;;;;5011459;28;20197;-73
2020/12/12 07:46:16;;;;;;;90.80;33.57;;;;;;;;;;5018665;28;20592;-73
2020/12/12 07:48:42;;;;;;;93.20;33.90;;;;;;;;;;5013322;28;20198;-73
2020/12/12 07:51:15;;;;;;;82.67;33.73;;;;;;;;;;5017382;28;20421;-73
2020/12/12 07:53:40;;;;;;;86.23;33.63;;;;;;;;;;5013018;28;20213;-73
2020/12/12 07:56:06;;;;;;;86.87;33.40;;;;;;;;;;5008206;28;20298;-73
2020/12/12 07:58:35;;;;;;;83.27;34.00;;;;;;;;;;5018506;28;20194;-73
2020/12/12 08:01:04;;;;;;;93.63;35.47;;;;;;;;;;5013222;28;20189;-73
2020/12/12 08:03:31;;;;;;;88.17;34.33;;;;;;;;;;5021038;28;20186;-73
2020/12/12 08:06:06;;;;;;;101.73;36.63;;;;;;;;;;5013351;28;20202;-73
2020/12/12 08:08:33;;;;;;;89.30;34.07;;;;;;;;;;5022066;28;20292;-73
2020/12/12 08:11:00;;;;;;;107.53;34.57;;;;;;;;;;5016000;28;20557;-73
2020/12/12 08:13:27;;;;;;;93.00;34.57;;;;;;;;;;5020726;28;20194;-73
2020/12/12 08:16:05;;;;;;;99.80;34.67;;;;;;;;;;5015663;28;20182;-73
2020/12/12 08:18:31;;;;;;;89.80;34.30;;;;;;;;;;5018950;28;20248;-72
2020/12/12 08:21:10;;;;;;;92.47;35.43;;;;;;;;;;5016180;28;20186;-73
2020/12/12 08:23:37;;;;;;;91.23;34.97;;;;;;;;;;5009223;28;20195;-72
2020/12/12 08:26:03;;;;;;;91.70;35.47;;;;;;;;;;5000895;28;20233;-73
2020/12/12 08:28:29;;;;;;;95.40;34.77;;;;;;;;;;5020461;28;20230;-73
2020/12/12 08:31:07;;;;;;;92.77;33.97;;;;;;;;;;5016830;28;20237;-73
2020/12/12 08:33:32;;;;;;;91.13;32.77;;;;;;;;;;5020091;28;20254;-73
2020/12/12 08:36:13;;;;;;;88.73;34.90;;;;;;;;;;5023455;28;20289;-73
2020/12/12 08:38:40;;;;;;;107.77;35.93;;;;;;;;;;5022246;28;20538;-73
2020/12/12 08:41:13;;;;;;;93.60;34.80;;;;;;;;;;5023393;28;20204;-73
2020/12/12 08:43:41;;;;;;;91.13;34.07;;;;;;;;;;5011736;28;20194;-73
2020/12/12 08:46:07;;;;;;;92.33;34.17;;;;;;;;;;5021275;28;20206;-73
2020/12/12 08:48:34;;;;;;;87.60;34.50;;;;;;;;;;5011441;28;20343;-72
2020/12/12 08:51:01;;;;;;;83.77;34.07;;;;;;;;;;5026752;28;20190;-72
2020/12/12 08:53:38;;;;;;;99.83;34.60;;;;;;;;;;5016675;28;20243;-73
2020/12/12 08:56:07;;;;;;;100.10;34.73;;;;;;;;;;5025407;28;20636;-73
2020/12/12 08:58:43;;;;;;;97.57;35.53;;;;;;;;;;5016154;28;20667;-73
2020/12/12 09:01:12;;;;;;;93.00;34.47;;;;;;;;;;5024157;28;20201;-73
2020/12/12 09:04:02;;;;;;;88.27;34.10;;;;;;;;;;5015602;28;20185;-73
2020/12/12 09:06:30;;;;;;;111.93;35.83;;;;;;;;;;5025200;28;20245;-72
2020/12/12 09:09:07;;;;;;;98.63;34.30;;;;;;;;;;5017520;28;20309;-72
2020/12/12 09:11:33;;;;;;;92.47;33.67;;;;;;;;;;5025327;28;20265;-76
2020/12/12 09:13:59;;;;;;;101.03;34.50;;;;;;;;;;5016711;28;20721;-72
2020/12/12 09:16:25;;;;;;;87.37;34.20;;;;;;;;;;5024177;28;20178;-73
2020/12/12 09:18:51;;;;;;;101.13;33.90;;;;;;;;;;5016709;28;20517;-73
2020/12/12 09:21:16;;;;;;;90.43;33.70;;;;;;;;;;5037176;28;20824;-73
2020/12/12 09:23:42;;;;;;;99.03;34.53;;;;;;;;;;5017350;28;20193;-75
2020/12/12 09:26:08;;;;;;;98.80;34.00;;;;;;;;;;5023120;28;20206;-73
2020/12/12 09:28:34;;;;;;;79.90;32.03;;;;;;;;;;5026544;28;20323;-73
2020/12/12 09:31:00;;;;;;;89.63;33.27;;;;;;;;;;5014300;28;20209;-73
2020/12/12 09:33:25;;;;;;;101.00;36.07;;;;;;;;;;5024305;28;20252;-72
2020/12/12 09:35:51;;;;;;;110.27;34.80;;;;;;;;;;5009404;28;20200;-72
2020/12/12 09:38:17;;;;;;;96.23;34.23;;;;;;;;;;5013228;28;20551;-73
2020/12/12 09:40:52;;;;;;;102.63;34.07;;;;;;;;;;5014831;28;20186;-73
2020/12/12 09:43:18;;;;;;;125.13;35.90;;;;;;;;;;5022925;28;20280;-73
2020/12/12 09:45:45;;;;;;;109.07;34.97;;;;;;;;;;5012915;28;20271;-72
2020/12/12 09:48:10;;;;;;;120.43;37.07;;;;;;;;;;5026455;28;20182;-72
2020/12/12 09:50:36;;;;;;;115.93;35.60;;;;;;;;;;5020232;28;20687;-72
2020/12/12 09:53:07;;;;;;;116.03;37.40;;;;;;;;;;5031491;28;20508;-73
2020/12/12 09:55:35;;;;;;;115.00;35.70;;;;;;;;;;5021895;28;20220;-73
2020/12/12 09:58:01;;;;;;;110.63;36.00;;;;;;;;;;5035571;28;20255;-73
2020/12/12 10:00:27;;;;;;;139.93;38.33;;;;;;;;;;5021510;28;20527;-72
2020/12/12 10:02:52;;;;;;;133.27;37.90;;;;;;;;;;5028666;28;20186;-72
2020/12/12 10:05:18;;;;;;;121.03;38.30;;;;;;;;;;5026588;28;20714;-73
2020/12/12 10:07:43;;;;;;;113.60;37.27;;;;;;;;;;5023760;28;20201;-73
2020/12/12 10:10:09;;;;;;;129.87;36.47;;;;;;;;;;5022611;28;20631;-73
2020/12/12 10:12:34;;;;;;;124.17;37.13;;;;;;;;;;5022709;28;20190;-72
2020/12/12 10:15:00;;;;;;;100.47;35.70;;;;;;;;;;5030469;28;20212;-72
2020/12/12 10:17:28;;;;;;;120.73;36.40;;;;;;;;;;5024468;28;20185;-72
2020/12/12 10:19:54;;;;;;;101.87;36.20;;;;;;;;;;5030906;28;20189;-72
2020/12/12 10:22:19;;;;;;;110.47;36.77;;;;;;;;;;5022416;28;20726;-72
2020/12/12 10:24:44;;;;;;;98.03;36.00;;;;;;;;;;5029230;28;20206;-72
2020/12/12 10:27:10;;;;;;;76.77;30.63;;;;;;;;;;5022078;28;20196;-72
2020/12/12 10:29:35;;;;;;;90.07;31.47;;;;;;;;;;5029352;28;20212;-72
2020/12/12 10:32:00;;;;;;;87.20;31.17;;;;;;;;;;5024317;28;20194;-72
2020/12/12 10:34:26;;;;;;;78.60;32.60;;;;;;;;;;5029076;28;20257;-72
2020/12/12 10:36:51;;;;;;;95.60;33.27;;;;;;;;;;5031226;28;20182;-72
2020/12/12 10:39:25;;;;;;;91.77;32.50;;;;;;;;;;5020064;28;20181;-72
2020/12/12 10:41:50;;;;;;;90.77;34.97;;;;;;;;;;5031717;28;20178;-72
2020/12/12 10:44:16;;;;;;;103.10;36.30;;;;;;;;;;5021129;28;20190;-72
2020/12/12 10:46:41;;;;;;;96.70;35.27;;;;;;;;;;5026316;28;20186;-72
2020/12/12 10:49:06;;;;;;;99.17;35.43;;;;;;;;;;5020851;28;20568;-72
2020/12/12 10:51:32;;;;;;;97.83;36.03;;;;;;;;;;5032418;28;20209;-72
2020/12/12 10:53:57;;;;;;;103.20;34.97;;;;;;;;;;5019027;28;20272;-72
2020/12/12 10:56:22;;;;;;;104.83;34.93;;;;;;;;;;5029408;28;20325;-72
2020/12/12 10:58:48;;;;;;;81.23;31.00;;;;;;;;;;5036443;28;20619;-72
2020/12/12 11:01:13;;;;;;;97.87;32.63;;;;;;;;;;5027681;28;20209;-72
2020/12/12 11:03:38;;;;;;;100.57;32.53;;;;;;;;;;5016560;28;20189;-71
2020/12/12 11:06:03;;;;;;;102.67;33.90;;;;;;;;;;5028142;28;20619;-71
2020/12/12 11:08:29;;;;;;;117.70;34.90;;;;;;;;;;5025033;28;20680;-71
2020/12/12 11:10:56;;;;;;;99.80;31.73;;;;;;;;;;5015596;28;20280;-71
2020/12/12 11:13:21;;;;;;;108.23;33.03;;;;;;;;;;5025986;28;20211;-71
2020/12/12 11:15:46;;;;;;;91.83;32.73;;;;;;;;;;5017420;28;20178;-72
2020/12/12 11:18:12;;;;;;;98.53;32.67;;;;;;;;;;5025790;28;20214;-71
2020/12/12 11:20:37;;;;;;;95.33;33.23;;;;;;;;;;5017800;28;20641;-71
2020/12/12 11:23:02;;;;;;;94.00;31.60;;;;;;;;;;5025473;28;20186;-71
2020/12/12 11:25:28;;;;;;;95.13;31.70;;;;;;;;;;5017983;28;20309;-71
2020/12/12 11:27:54;;;;;;;81.50;30.63;;;;;;;;;;5026247;28;20190;-71
2020/12/12 11:30:22;;;;;;;64.93;27.33;;;;;;;;;;5017482;28;20182;-72
2020/12/12 11:32:47;;;;;;;72.83;27.67;;;;;;;;;;5026502;28;20170;-73
2020/12/12 11:35:16;;;;;;;64.07;26.47;;;;;;;;;;5020129;28;20625;-73
2020/12/12 11:43:09;;;;;;;83.37;28.67;;;;;;;;;;5017882;28;20202;-73
2020/12/12 11:45:48;;;;;;;62.23;26.63;;;;;;;;;;5022597;28;20210;-73
2020/12/12 11:48:13;;;;;;;75.03;27.67;;;;;;;;;;5016613;28;20209;-72
2020/12/12 11:50:38;;;;;;;68.87;27.50;;;;;;;;;;5014756;28;20187;-71
2020/12/12 11:53:04;;;;;;;85.50;29.33;;;;;;;;;;5012808;28;20190;-71
2020/12/12 11:55:29;;;;;;;81.30;28.23;;;;;;;;;;5021981;28;20231;-71
2020/12/12 11:57:54;;;;;;;83.77;29.23;;;;;;;;;;5013042;28;20186;-71
2020/12/12 12:00:21;;;;;;;89.87;30.60;;;;;;;;;;5023937;28;20421;-71
2020/12/12 12:02:47;;;;;;;74.73;29.70;;;;;;;;;;5029796;28;20186;-72
2020/12/12 12:05:12;;;;;;;74.10;29.50;;;;;;;;;;5023074;28;20218;-74
2020/12/12 12:07:45;;;;;;;72.80;29.03;;;;;;;;;;5015688;28;20285;-72
2020/12/12 12:11:07;;;;;;;85.73;30.73;;;;;;;;;;5035311;28;20186;-72
2020/12/12 12:12:57;;;;;;;106.57;32.67;;;;;;;;;;5018588;28;20212;-71
2020/12/12 12:15:22;;;;;;;120.20;34.33;;;;;;;;;;5023875;28;20183;-71
2020/12/12 12:17:48;;;;;;;118.87;40.50;;;;;;;;;;5015764;28;20751;-71
2020/12/12 12:20:13;;;;;;;114.17;44.23;;;;;;;;;;5019544;28;20197;-71
2020/12/12 12:22:39;;;;;;;175.97;58.57;;;;;;;;;;5011622;28;20265;-71
2020/12/12 12:25:06;;;;;;;128.10;40.50;;;;;;;;;;5020437;28;20207;-72
2020/12/12 12:27:31;;;;;;;135.60;38.20;;;;;;;;;;5027143;28;20246;-71
2020/12/12 12:29:56;;;;;;;145.43;37.90;;;;;;;;;;5015138;28;20544;-73
2020/12/12 12:32:22;;;;;;;124.60;37.00;;;;;;;;;;5018194;28;20182;-71
2020/12/12 12:34:47;;;;;;;155.87;38.23;;;;;;;;;;5015683;28;20233;-71
2020/12/12 12:37:12;;;;;;;140.07;37.37;;;;;;;;;;5021847;28;20182;-71
2020/12/12 12:39:38;;;;;;;173.23;39.50;;;;;;;;;;5013602;28;20189;-71
2020/12/12 12:42:06;;;;;;;185.63;41.57;;;;;;;;;;5024939;28;20307;-71
2020/12/12 12:44:32;;;;;;;180.93;42.47;;;;;;;;;;5016049;28;20189;-71
2020/12/12 12:46:58;;;;;;;213.13;42.20;;;;;;;;;;5026932;28;20316;-71
2020/12/12 12:49:23;;;;;;;191.33;42.13;;;;;;;;;;5013183;28;20276;-71
2020/12/12 12:51:49;;;;;;;198.00;43.17;;;;;;;;;;5024316;28;20200;-72
2020/12/12 12:54:15;;;;;;;189.47;42.23;;;;;;;;;;5015405;28;20197;-72
2020/12/12 12:56:40;;;;;;;161.63;38.80;;;;;;;;;;5018724;28;20195;-72
2020/12/12 12:59:05;;;;;;;188.27;42.93;;;;;;;;;;5023057;28;20200;-72
2020/12/12 13:01:31;;;;;;;181.43;42.10;;;;;;;;;;5014350;28;20190;-71
2020/12/12 13:03:56;;;;;;;266.03;45.20;;;;;;;;;;5019661;28;20692;-71
2020/12/12 13:06:23;;;;;;;130.30;37.53;;;;;;;;;;5023062;28;20272;-71
2020/12/12 13:08:49;;;;;;;249.73;45.67;;;;;;;;;;5036358;28;20198;-71
2020/12/12 13:11:14;;;;;;;219.80;44.23;;;;;;;;;;5016713;28;20201;-71
2020/12/12 13:13:40;;;;;;;252.70;44.17;;;;;;;;;;5023611;28;20189;-71
2020/12/12 13:16:06;;;;;;;122.33;36.60;;;;;;;;;;5013516;28;20664;-71
2020/12/12 13:19:11;;;;;;;238.17;45.73;;;;;;;;;;5019495;28;20540;-71
2020/12/12 13:23:57;;;;;;;264.17;45.87;;;;;;;;;;5023140;28;20202;-71
2020/12/12 13:26:23;;;;;;;192.27;41.77;;;;;;;;;;5015991;28;20252;-72
2020/12/12 13:31:31;;;;;;;202.63;41.70;;;;;;;;;;5010840;28;24365;-71
2020/12/12 13:34:01;;;;;;;179.73;40.77;;;;;;;;;;5016872;28;20226;-71
2020/12/12 13:36:26;;;;;;;172.77;40.37;;;;;;;;;;5011106;28;20250;-71
2020/12/12 13:38:51;;;;;;;195.33;43.80;;;;;;;;;;5021145;28;20256;-72
2020/12/12 13:41:21;;;;;;;160.33;41.73;;;;;;;;;;5021050;28;20205;-72
2020/12/12 13:43:47;;;;;;;151.90;40.23;;;;;;;;;;5013372;28;20198;-72
2020/12/12 13:46:13;;;;;;;178.77;41.90;;;;;;;;;;5021938;28;20214;-72
2020/12/12 13:48:38;;;;;;;163.67;41.00;;;;;;;;;;5013699;28;21221;-71
2020/12/12 13:51:04;;;;;;;163.17;42.90;;;;;;;;;;5021258;28;20194;-71
2020/12/12 13:53:30;;;;;;;157.57;42.70;;;;;;;;;;5008927;28;20201;-71
2020/12/12 13:55:55;;;;;;;134.53;38.67;;;;;;;;;;4322303;28;10000737;-72
2020/12/12 13:58:20;;;;;;;118.47;37.97;;;;;;;;;;5012362;28;20200;-71
2020/12/12 14:00:46;;;;;;;137.53;40.30;;;;;;;;;;5016968;28;20198;-72
2020/12/12 14:03:11;;;;;;;150.57;41.47;;;;;;;;;;5006684;28;20202;-72
2020/12/12 14:05:48;;;;;;;124.33;38.23;;;;;;;;;;5014438;28;20205;-72
2020/12/12 14:08:18;;;;;;;132.10;38.03;;;;;;;;;;5011191;28;20670;-72
2020/12/12 14:24:10;;;;;;;170.67;41.83;;;;;;;;;;5009885;28;20202;-72
2020/12/12 14:29:19;;;;;;;125.07;40.27;;;;;;;;;;5008954;28;20229;-72
2020/12/12 14:31:44;;;;;;;134.33;38.13;;;;;;;;;;5016936;28;20898;-72
2020/12/12 14:34:10;;;;;;;138.63;40.63;;;;;;;;;;5015810;28;20297;-72
2020/12/12 14:36:35;;;;;;;129.33;39.30;;;;;;;;;;5013951;28;20190;-71
2020/12/12 14:39:00;;;;;;;124.93;39.07;;;;;;;;;;5015366;28;20218;-71